Time;durP1;ratioP1;P1;durP2;ratioP2;P2;SDS_P1;SDS_P2;PMS_P1;PMS_P2;Temp;Humidity;BMP_temperature;BMP_pressure;BME280_temperature;BME280_humidity;BME280_pressure;Samples;Min_cycle;Max_cycle;Signal;HPM_P1;HPM_P2
2022/10/02 00:00:42;;;;;;;;;;;;;;;16.16;72.82;101001.63;1022281;29;692;-68
2022/10/02 00:01:32;;;;;;;;;;;;;;;16.31;72.59;101000.31;1022239;29;655;-67
2022/10/02 00:02:23;;;;;;;;;;;;;;;16.29;72.75;101004.13;1022351;29;654;-68
2022/10/02 00:03:13;;;;;;;;;;;;;;;16.39;72.16;101001.50;1022314;29;626;-68
2022/10/02 00:04:03;;;;;;;;;;;;;;;16.38;72.61;101006.00;1022284;29;634;-67
2022/10/02 00:04:54;;;;;;;;;;;;;;;16.60;71.71;101007.69;1022414;28;626;-68
2022/10/02 00:05:44;;;;;;;;;;;;;;;16.56;72.02;101009.78;1022316;29;713;-67
2022/10/02 00:06:35;;;;;;;;;;;;;;;16.71;72.48;101001.38;1022229;29;692;-67
2022/10/02 00:07:25;;;;;;;;;;;;;;;16.60;71.29;101003.16;1019977;29;611;-68
2022/10/02 00:08:15;;;;;;;;;;;;;;;16.28;72.28;100997.91;1022212;29;661;-68
2022/10/02 00:09:06;;;;;;;;;;;;;;;16.42;72.33;101001.22;1022296;29;723;-68
2022/10/02 00:09:57;;;;;;;;;;;;;;;16.40;72.72;101000.50;1020262;29;650;-67
2022/10/02 00:10:47;;;;;;;;;;;;;;;16.55;72.41;101010.78;1020048;29;725;-68
2022/10/02 00:11:38;;;;;;;;;;;;;;;16.69;72.51;101006.06;1021881;29;578;-68
2022/10/02 00:12:28;;;;;;;;;;;;;;;16.80;71.95;101012.22;1022205;29;655;-68
2022/10/02 00:13:18;;;;;;;;;;;;;;;16.89;71.92;101013.22;1022315;29;773;-68
2022/10/02 00:14:09;;;;;;;;;;;;;;;16.95;71.88;101013.53;1022250;29;681;-68
2022/10/02 00:14:59;;;;;;;;;;;;;;;16.97;71.86;101010.72;1019927;29;1442;-68
2022/10/02 00:15:50;;;;;;;;;;;;;;;16.82;71.04;101017.47;1020401;29;655;-68
2022/10/02 00:16:40;;;;;;;;;;;;;;;16.82;71.99;101010.25;1020769;29;600;-68
2022/10/02 00:17:31;;;;;;;;;;;;;;;16.78;70.95;101013.31;1017258;29;1891;-68
2022/10/02 00:18:21;;;;;;;;;;;;;;;16.87;72.07;101009.81;1017194;29;694;-69
2022/10/02 00:19:12;;;;;;;;;;;;;;;16.93;71.62;101020.03;1016561;29;627;-68
2022/10/02 00:20:02;;;;;;;;;;;;;;;16.96;71.21;101015.25;1016689;29;691;-68
2022/10/02 00:20:53;;;;;;;;;;;;;;;17.04;71.85;101006.47;1016855;29;698;-68
2022/10/02 00:21:43;;;;;;;;;;;;;;;17.06;71.76;101022.47;1016751;29;933;-68
2022/10/02 00:22:33;;;;;;;;;;;;;;;17.06;71.49;101009.03;1016763;29;689;-68
2022/10/02 00:23:24;;;;;;;;;;;;;;;17.01;71.90;101012.16;1017169;29;607;-68
2022/10/02 00:24:14;;;;;;;;;;;;;;;16.93;72.03;101018.19;1017200;29;701;-66
2022/10/02 00:25:05;;;;;;;;;;;;;;;16.97;71.98;101016.09;1017296;29;694;-68
2022/10/02 00:25:55;;;;;;;;;;;;;;;16.98;71.38;101015.97;1016577;29;627;-69
2022/10/02 00:26:46;;;;;;;;;;;;;;;17.00;71.45;101016.69;1016624;29;638;-69
2022/10/02 00:27:37;;;;;;;;;;;;;;;17.02;71.92;101017.38;1016727;29;650;-69
2022/10/02 00:28:27;;;;;;;;;;;;;;;17.04;71.27;101011.84;1016556;29;638;-69
2022/10/02 00:29:19;;;;;;;;;;;;;;;17.02;71.80;101020.06;1016486;29;654;-68
2022/10/02 00:30:09;;;;;;;;;;;;;;;17.07;71.40;101016.13;1017186;29;702;-69
2022/10/02 00:30:59;;;;;;;;;;;;;;;17.07;71.67;101010.72;1017264;29;696;-69
2022/10/02 00:31:50;;;;;;;;;;;;;;;17.07;71.98;101021.50;1017050;29;635;-66
2022/10/02 00:32:40;;;;;;;;;;;;;;;17.07;71.61;101018.81;1017068;29;639;-69
2022/10/02 00:33:31;;;;;;;;;;;;;;;17.09;71.76;101019.53;1016776;29;639;-69
2022/10/02 00:34:22;;;;;;;;;;;;;;;17.10;71.68;101026.63;1016578;29;647;-69
2022/10/02 00:35:12;;;;;;;;;;;;;;;17.09;71.59;101024.91;1017105;29;698;-66
2022/10/02 00:36:02;;;;;;;;;;;;;;;17.06;72.03;101017.09;1016201;29;690;-67
2022/10/02 00:36:53;;;;;;;;;;;;;;;17.06;71.70;101017.94;1017108;29;654;-66
2022/10/02 00:37:43;;;;;;;;;;;;;;;17.10;71.94;101021.22;1016501;29;655;-67
2022/10/02 00:38:34;;;;;;;;;;;;;;;17.08;71.43;101017.81;1016642;29;713;-67
2022/10/02 00:39:24;;;;;;;;;;;;;;;17.08;71.80;101012.44;1016463;29;623;-68
2022/10/02 00:40:15;;;;;;;;;;;;;;;17.06;72.38;101015.25;1016703;29;674;-68
2022/10/02 00:41:05;;;;;;;;;;;;;;;17.07;72.24;101014.28;1016491;29;651;-67
2022/10/02 00:41:55;;;;;;;;;;;;;;;17.06;71.90;101022.47;1017101;29;665;-68
2022/10/02 00:42:46;;;;;;;;;;;;;;;17.08;72.33;101012.44;1017030;29;705;-68
2022/10/02 00:43:37;;;;;;;;;;;;;;;17.07;71.45;101019.66;1016673;29;709;-67
2022/10/02 00:44:27;;;;;;;;;;;;;;;17.11;71.71;101022.94;1018517;29;1200;-68
2022/10/02 00:45:17;;;;;;;;;;;;;;;17.09;71.92;101022.22;1021352;29;1541;-67
2022/10/02 00:46:08;;;;;;;;;;;;;;;17.08;71.55;101023.19;1021043;29;650;-68
2022/10/02 00:46:58;;;;;;;;;;;;;;;17.08;71.82;101020.50;1020390;29;1029;-68
2022/10/02 00:47:49;;;;;;;;;;;;;;;17.10;72.08;101019.38;1023527;29;1109;-67
2022/10/02 00:48:39;;;;;;;;;;;;;;;17.10;71.73;101024.78;1025397;28;1068;-68
2022/10/02 00:49:30;;;;;;;;;;;;;;;17.09;71.47;101019.53;1020006;29;1132;-67
2022/10/02 00:50:20;;;;;;;;;;;;;;;17.10;72.26;101015.84;1019774;29;1074;-68
2022/10/02 00:51:10;;;;;;;;;;;;;;;17.12;71.79;101025.50;1019997;29;1106;-68
2022/10/02 00:52:01;;;;;;;;;;;;;;;17.10;71.52;101016.69;1020466;29;1176;-68
2022/10/02 00:52:52;;;;;;;;;;;;;;;17.10;71.75;101022.09;1020215;29;1074;-68
2022/10/02 00:53:42;;;;;;;;;;;;;;;17.10;71.16;101023.91;1019508;29;1303;-68
2022/10/02 00:54:33;;;;;;;;;;;;;;;17.12;71.63;101024.63;1020850;29;1113;-68
2022/10/02 00:55:23;;;;;;;;;;;;;;;17.10;71.99;101021.22;1019097;29;1078;-68
2022/10/02 00:56:13;;;;;;;;;;;;;;;17.10;71.95;101026.63;1020875;29;1110;-68
2022/10/02 00:57:04;;;;;;;;;;;;;;;17.09;71.65;101030.28;1019128;29;1979;-68
2022/10/02 00:57:54;;;;;;;;;;;;;;;17.09;71.79;101028.44;1021005;29;1145;-68
2022/10/02 00:58:45;;;;;;;;;;;;;;;17.06;71.57;101027.88;1019327;29;1074;-68
2022/10/02 00:59:35;;;;;;;;;;;;;;;17.05;71.35;101031.53;1021130;29;1074;-67
2022/10/02 01:00:25;;;;;;;;;;;;;;;17.08;72.19;101033.97;1019352;29;1086;-68
2022/10/02 01:01:16;;;;;;;;;;;;;;;17.07;71.77;101025.03;1021341;29;1090;-68
2022/10/02 01:02:06;;;;;;;;;;;;;;;17.07;71.80;101018.81;1019382;29;1058;-68
2022/10/02 01:02:57;;;;;;;;;;;;;;;17.06;71.55;101026.03;1020911;29;1070;-68
2022/10/02 01:03:52;;;;;;;;;;;;;;;17.08;71.41;101028.59;1019917;29;1129;-68
2022/10/02 01:04:42;;;;;;;;;;;;;;;17.08;71.67;101025.91;1020822;29;1189;-67
2022/10/02 01:05:33;;;;;;;;;;;;;;;17.11;71.38;101031.88;1021274;29;1286;-68
2022/10/02 01:06:23;;;;;;;;;;;;;;;17.12;71.85;101019.25;1022004;29;1092;-68
2022/10/02 01:07:14;;;;;;;;;;;;;;;17.07;72.06;101029.56;1020949;29;1145;-68
2022/10/02 01:08:04;;;;;;;;;;;;;;;17.06;71.85;101019.78;1019138;29;1125;-68
2022/10/02 01:08:55;;;;;;;;;;;;;;;17.08;72.10;101025.91;1021872;28;1092;-68
2022/10/02 01:09:45;;;;;;;;;;;;;;;17.07;71.48;101021.50;1020287;29;1069;-68
2022/10/02 01:10:36;;;;;;;;;;;;;;;17.08;71.48;101023.19;1020791;29;1062;-68
2022/10/02 01:11:26;;;;;;;;;;;;;;;17.09;71.75;101022.22;1019354;29;995;-68
2022/10/02 01:12:16;;;;;;;;;;;;;;;17.08;71.65;101017.81;1020196;29;1105;-68
2022/10/02 01:13:07;;;;;;;;;;;;;;;17.07;71.88;101025.03;1020420;29;1077;-68
2022/10/02 01:13:57;;;;;;;;;;;;;;;17.10;71.25;101021.22;1021282;29;1149;-67
2022/10/02 01:14:48;;;;;;;;;;;;;;;17.08;71.35;101021.38;1019534;29;1042;-67
2022/10/02 01:15:39;;;;;;;;;;;;;;;17.09;71.28;101016.81;1021967;28;1083;-67
2022/10/02 01:16:30;;;;;;;;;;;;;;;17.08;71.70;101017.81;1019705;29;1090;-67
2022/10/02 01:17:20;;;;;;;;;;;;;;;17.09;71.28;101022.22;1021259;29;1898;-67
2022/10/02 01:18:10;;;;;;;;;;;;;;;17.08;71.69;101020.50;1019948;29;1157;-67
2022/10/02 01:19:01;;;;;;;;;;;;;;;17.08;71.96;101018.66;1021321;29;1105;-67
2022/10/02 01:19:51;;;;;;;;;;;;;;;17.09;70.75;101017.69;1020002;29;1074;-67
2022/10/02 01:20:42;;;;;;;;;;;;;;;17.09;71.42;101020.38;1019143;29;1074;-67
2022/10/02 01:21:33;;;;;;;;;;;;;;;17.08;71.67;101015.13;1020595;29;1074;-67
2022/10/02 01:22:23;;;;;;;;;;;;;;;17.09;71.46;101019.53;1018936;29;1074;-67
2022/10/02 01:23:13;;;;;;;;;;;;;;;17.10;71.68;101018.53;1020826;29;1102;-67
2022/10/02 01:24:04;;;;;;;;;;;;;;;17.10;71.43;101010.47;1019035;29;1086;-67
2022/10/02 01:24:54;;;;;;;;;;;;;;;17.10;71.81;101019.38;1019860;29;1263;-68
2022/10/02 01:25:45;;;;;;;;;;;;;;;17.10;71.57;101016.69;1019255;29;1074;-67
2022/10/02 01:26:35;;;;;;;;;;;;;;;17.08;71.53;101012.44;1020863;29;1097;-68
2022/10/02 01:27:26;;;;;;;;;;;;;;;17.08;71.07;101017.81;1019863;29;1132;-67
2022/10/02 01:28:16;;;;;;;;;;;;;;;17.07;71.92;101013.41;1021227;29;1106;-71
2022/10/02 01:29:06;;;;;;;;;;;;;;;17.08;71.69;101012.44;1019316;29;1165;-67
2022/10/02 01:29:57;;;;;;;;;;;;;;;17.07;71.44;101013.41;1021417;29;633;-66
2022/10/02 01:30:47;;;;;;;;;;;;;;;17.06;71.87;101015.25;1021481;29;635;-67
2022/10/02 01:31:38;;;;;;;;;;;;;;;17.06;71.25;101014.41;1021561;29;981;-68
2022/10/02 01:32:28;;;;;;;;;;;;;;;17.07;71.56;101016.97;1021424;29;777;-67
2022/10/02 01:33:18;;;;;;;;;;;;;;;17.08;72.07;101015.97;1020765;29;749;-67
2022/10/02 01:34:09;;;;;;;;;;;;;;;17.09;71.07;101019.53;1020424;29;650;-67
2022/10/02 01:34:59;;;;;;;;;;;;;;;17.08;70.84;101020.50;1021359;29;658;-67
2022/10/02 01:35:50;;;;;;;;;;;;;;;17.09;71.28;101022.22;1021414;29;702;-67
2022/10/02 01:36:40;;;;;;;;;;;;;;;17.08;71.82;101018.66;1021316;29;630;-68
2022/10/02 01:37:31;;;;;;;;;;;;;;;17.06;71.23;101014.41;1021071;29;1918;-68
2022/10/02 01:38:22;;;;;;;;;;;;;;;17.08;71.54;101029.44;1021306;29;730;-67
2022/10/02 01:39:12;;;;;;;;;;;;;;;17.07;70.98;101026.88;1021914;29;643;-68
2022/10/02 01:40:03;;;;;;;;;;;;;;;17.08;71.54;101023.19;1021426;29;845;-68
2022/10/02 01:40:53;;;;;;;;;;;;;;;17.08;71.98;101020.50;1021340;29;655;-68
2022/10/02 01:41:44;;;;;;;;;;;;;;;17.07;70.96;101018.81;1021299;29;663;-67
2022/10/02 01:42:34;;;;;;;;;;;;;;;17.08;71.87;101017.81;1021313;29;651;-68
2022/10/02 01:43:25;;;;;;;;;;;;;;;17.07;71.55;101026.88;1021271;29;619;-68
2022/10/02 01:44:15;;;;;;;;;;;;;;;17.06;71.68;101027.88;1021718;29;1207;-68
2022/10/02 01:45:06;;;;;;;;;;;;;;;17.08;71.80;101029.44;1020135;29;690;-68
2022/10/02 01:45:57;;;;;;;;;;;;;;;17.07;71.89;101026.88;1020407;29;697;-67
2022/10/02 01:46:47;;;;;;;;;;;;;;;17.04;71.50;101028.00;1016948;29;655;-68
2022/10/02 01:47:37;;;;;;;;;;;;;;;17.07;71.61;101025.03;1016310;29;690;-68
2022/10/02 01:48:28;;;;;;;;;;;;;;;17.05;71.62;101031.53;1016018;29;690;-68
2022/10/02 01:49:18;;;;;;;;;;;;;;;17.04;71.49;101028.00;1016260;29;701;-68
2022/10/02 01:50:09;;;;;;;;;;;;;;;17.05;71.65;101028.84;1016344;29;705;-68
2022/10/02 01:50:59;;;;;;;;;;;;;;;17.03;71.57;101034.38;1016284;29;685;-67
2022/10/02 01:51:50;;;;;;;;;;;;;;;17.02;71.32;101036.22;1016785;29;682;-67
2022/10/02 01:52:40;;;;;;;;;;;;;;;17.04;71.09;101037.91;1016789;29;619;-67
2022/10/02 01:53:30;;;;;;;;;;;;;;;17.02;71.57;101031.84;1016267;29;706;-68
2022/10/02 01:54:21;;;;;;;;;;;;;;;17.04;71.23;101032.53;1016400;29;658;-67
2022/10/02 01:55:11;;;;;;;;;;;;;;;17.06;71.15;101031.41;1016238;29;642;-68
2022/10/02 01:56:02;;;;;;;;;;;;;;;17.06;71.20;101041.34;1016272;29;678;-68
2022/10/02 01:56:53;;;;;;;;;;;;;;;17.06;71.71;101038.63;1016835;29;773;-68
2022/10/02 01:57:43;;;;;;;;;;;;;;;17.04;71.65;101038.78;1017352;29;667;-67
2022/10/02 01:58:34;;;;;;;;;;;;;;;17.05;71.13;101040.47;1016743;29;1286;-68
2022/10/02 01:59:24;;;;;;;;;;;;;;;17.05;70.80;101034.25;1016801;29;681;-68
2022/10/02 02:00:14;;;;;;;;;;;;;;;17.01;71.64;101036.38;1016219;29;628;-68
2022/10/02 02:01:05;;;;;;;;;;;;;;;17.02;71.72;101045.31;1016399;29;729;-67
2022/10/02 02:01:55;;;;;;;;;;;;;;;17.00;71.86;101040.91;1018470;29;1497;-68
2022/10/02 02:02:46;;;;;;;;;;;;;;;17.03;71.19;101042.44;1021785;29;653;-68
2022/10/02 02:03:36;;;;;;;;;;;;;;;17.02;71.29;101039.94;1019358;29;1488;-68
2022/10/02 02:04:27;;;;;;;;;;;;;;;17.05;70.80;101047.69;1017804;29;634;-68
2022/10/02 02:05:17;;;;;;;;;;;;;;;17.02;71.12;101049.69;1016634;29;776;-68
2022/10/02 02:06:07;;;;;;;;;;;;;;;17.04;71.44;101046.00;1017307;29;639;-67
2022/10/02 02:06:58;;;;;;;;;;;;;;;17.00;71.30;101040.91;1017391;29;671;-67
2022/10/02 02:07:48;;;;;;;;;;;;;;;17.01;71.07;101044.47;1017363;29;652;-67
2022/10/02 02:08:39;;;;;;;;;;;;;;;17.02;71.32;101046.13;1017363;29;721;-67
2022/10/02 02:09:29;;;;;;;;;;;;;;;16.97;70.81;101043.88;1017324;29;686;-67
2022/10/02 02:10:21;;;;;;;;;;;;;;;17.02;71.31;101043.44;1017281;29;690;-67
2022/10/02 02:11:11;;;;;;;;;;;;;;;17.00;71.31;101042.75;1017289;29;769;-67
2022/10/02 02:12:02;;;;;;;;;;;;;;;17.02;71.13;101046.97;1017335;29;706;-67
2022/10/02 02:12:52;;;;;;;;;;;;;;;17.02;71.43;101043.44;1017248;29;615;-67
2022/10/02 02:13:43;;;;;;;;;;;;;;;17.01;71.55;101039.06;1017296;29;694;-68
2022/10/02 02:14:33;;;;;;;;;;;;;;;17.02;70.53;101040.75;1016398;29;714;-67
2022/10/02 02:15:23;;;;;;;;;;;;;;;17.02;71.53;101037.22;1017360;29;619;-68
2022/10/02 02:16:14;;;;;;;;;;;;;;;17.01;71.13;101039.06;1017357;29;718;-68
2022/10/02 02:17:04;;;;;;;;;;;;;;;17.02;71.17;101038.06;1017345;29;658;-67
2022/10/02 02:17:55;;;;;;;;;;;;;;;17.02;71.43;101034.53;1016799;29;674;-67
2022/10/02 02:18:45;;;;;;;;;;;;;;;16.99;71.16;101033.81;1017294;29;671;-67
2022/10/02 02:19:36;;;;;;;;;;;;;;;17.00;70.74;101030.13;1017288;29;698;-67
2022/10/02 02:20:26;;;;;;;;;;;;;;;16.99;70.79;101041.91;1017300;29;655;-67
2022/10/02 02:21:16;;;;;;;;;;;;;;;16.97;70.86;101024.16;1017231;29;674;-67
2022/10/02 02:22:07;;;;;;;;;;;;;;;16.97;71.22;101033.09;1021328;29;694;-67
2022/10/02 02:22:57;;;;;;;;;;;;;;;17.00;71.47;101037.38;1020067;29;650;-67
2022/10/02 02:23:48;;;;;;;;;;;;;;;17.01;71.08;101033.69;1020608;29;616;-67
2022/10/02 02:24:38;;;;;;;;;;;;;;;16.98;70.78;101032.13;1020706;29;705;-68
2022/10/02 02:25:28;;;;;;;;;;;;;;;16.97;70.83;101027.72;1020033;29;927;-68
2022/10/02 02:26:19;;;;;;;;;;;;;;;16.99;70.69;101032.97;1020645;29;685;-68
2022/10/02 02:27:09;;;;;;;;;;;;;;;16.99;71.34;101031.13;1020027;29;642;-68
2022/10/02 02:28:00;;;;;;;;;;;;;;;16.98;71.10;101031.25;1020293;29;717;-68
2022/10/02 02:28:50;;;;;;;;;;;;;;;16.97;71.03;101030.41;1020588;29;686;-68
2022/10/02 02:29:41;;;;;;;;;;;;;;;16.97;70.53;101027.72;1020018;29;669;-68
2022/10/02 02:30:31;;;;;;;;;;;;;;;16.99;71.57;101027.59;1020656;29;674;-68
2022/10/02 02:31:21;;;;;;;;;;;;;;;17.00;70.56;101031.97;1020630;29;679;-68
2022/10/02 02:32:12;;;;;;;;;;;;;;;16.99;71.48;101027.59;1019786;29;647;-68
2022/10/02 02:33:02;;;;;;;;;;;;;;;16.99;70.60;101039.22;1020107;29;687;-68
2022/10/02 02:33:53;;;;;;;;;;;;;;;16.98;71.33;101036.66;1019954;29;1433;-68
2022/10/02 02:34:43;;;;;;;;;;;;;;;16.97;70.68;101038.50;1021124;29;632;-68
2022/10/02 02:35:34;;;;;;;;;;;;;;;16.96;71.14;101036.78;1020976;29;1445;-68
2022/10/02 02:36:24;;;;;;;;;;;;;;;16.95;71.64;101040.47;1021234;29;729;-68
2022/10/02 02:37:17;;;;;;;;;;;;;;;16.95;71.15;101035.06;1020819;29;1914;-68
2022/10/02 02:38:08;;;;;;;;;;;;;;;16.96;71.24;101036.78;1020998;29;663;-68
2022/10/02 02:38:58;;;;;;;;;;;;;;;16.94;71.22;101036.06;1020429;29;650;-68
2022/10/02 02:39:49;;;;;;;;;;;;;;;16.96;71.04;101038.63;1021047;29;686;-68
2022/10/02 02:40:39;;;;;;;;;;;;;;;16.94;71.45;101041.44;1021003;29;686;-68
2022/10/02 02:41:30;;;;;;;;;;;;;;;16.94;70.66;101043.28;1020392;29;698;-68
2022/10/02 02:42:20;;;;;;;;;;;;;;;16.95;71.22;101043.16;1020988;29;647;-68
2022/10/02 02:43:11;;;;;;;;;;;;;;;16.97;71.24;101043.88;1020946;29;611;-68
2022/10/02 02:44:01;;;;;;;;;;;;;;;16.95;71.22;101043.16;1020972;29;666;-68
2022/10/02 02:44:51;;;;;;;;;;;;;;;16.97;70.72;101048.41;1020127;29;663;-68
2022/10/02 02:45:42;;;;;;;;;;;;;;;16.96;71.03;101041.31;1019734;29;690;-67
2022/10/02 02:46:32;;;;;;;;;;;;;;;16.97;71.66;101043.03;1016747;29;678;-68
2022/10/02 02:47:23;;;;;;;;;;;;;;;16.96;71.12;101038.63;1016116;29;654;-68
2022/10/02 02:48:13;;;;;;;;;;;;;;;16.94;71.69;101044.13;1017016;29;726;-68
2022/10/02 02:49:04;;;;;;;;;;;;;;;16.94;71.21;101049.53;1017073;29;600;-68
2022/10/02 02:49:54;;;;;;;;;;;;;;;16.95;71.03;101048.53;1017084;29;639;-68
2022/10/02 02:50:44;;;;;;;;;;;;;;;16.97;71.50;101051.09;1017148;29;685;-68
2022/10/02 02:51:35;;;;;;;;;;;;;;;16.96;70.51;101046.69;1016031;29;784;-68
2022/10/02 02:52:25;;;;;;;;;;;;;;;16.94;71.38;101048.66;1015853;29;648;-68
2022/10/02 02:53:16;;;;;;;;;;;;;;;16.91;71.26;101054.31;1017209;29;670;-69
2022/10/02 02:54:06;;;;;;;;;;;;;;;16.94;70.89;101054.91;1017051;29;725;-68
2022/10/02 02:54:57;;;;;;;;;;;;;;;16.94;71.23;101051.34;1017004;29;718;-68
2022/10/02 02:55:47;;;;;;;;;;;;;;;16.96;71.09;101052.94;1017034;29;647;-68
2022/10/02 02:56:37;;;;;;;;;;;;;;;16.95;70.77;101048.53;1016943;29;675;-68
2022/10/02 02:57:28;;;;;;;;;;;;;;;16.95;71.15;101043.16;1016939;29;1962;-68
2022/10/02 02:58:18;;;;;;;;;;;;;;;16.96;71.41;101042.16;1017027;29;674;-67
2022/10/02 02:59:09;;;;;;;;;;;;;;;16.95;70.99;101051.22;1015991;29;608;-67
2022/10/02 02:59:59;;;;;;;;;;;;;;;16.94;71.51;101052.22;1017091;29;698;-68
2022/10/02 03:00:49;;;;;;;;;;;;;;;16.94;71.14;101049.53;1016552;29;635;-68
2022/10/02 03:01:40;;;;;;;;;;;;;;;16.93;71.68;101055.03;1016037;29;662;-68
2022/10/02 03:02:30;;;;;;;;;;;;;;;16.92;71.19;101045.25;1016988;29;691;-68
2022/10/02 03:03:21;;;;;;;;;;;;;;;16.93;70.82;101053.19;1015981;29;653;-68
2022/10/02 03:04:11;;;;;;;;;;;;;;;16.94;70.96;101051.34;1019999;29;738;-68
2022/10/02 03:05:01;;;;;;;;;;;;;;;16.96;71.42;101047.56;1020385;29;690;-68
2022/10/02 03:05:52;;;;;;;;;;;;;;;16.94;71.81;101040.59;1020498;29;703;-68
2022/10/02 03:06:43;;;;;;;;;;;;;;;16.90;71.80;101045.38;1020375;29;636;-68
2022/10/02 03:07:34;;;;;;;;;;;;;;;16.91;71.02;101044.41;1021414;29;694;-68
2022/10/02 03:08:24;;;;;;;;;;;;;;;16.93;71.77;101039.75;1021508;29;686;-68
2022/10/02 03:09:15;;;;;;;;;;;;;;;16.95;71.10;101045.84;1020291;29;683;-67
2022/10/02 03:10:05;;;;;;;;;;;;;;;16.93;71.48;101042.44;1020455;29;648;-67
2022/10/02 03:10:55;;;;;;;;;;;;;;;16.93;71.37;101041.56;1020360;29;671;-67
2022/10/02 03:11:46;;;;;;;;;;;;;;;16.93;71.37;101038.88;1020509;29;660;-67
2022/10/02 03:12:36;;;;;;;;;;;;;;;16.94;71.45;101040.59;1020367;29;796;-67
2022/10/02 03:13:27;;;;;;;;;;;;;;;16.92;71.45;101039.88;1020050;29;678;-67
2022/10/02 03:14:17;;;;;;;;;;;;;;;16.93;71.28;101042.44;1020590;29;721;-68
2022/10/02 03:15:08;;;;;;;;;;;;;;;16.91;71.32;101044.41;1020574;29;682;-68
2022/10/02 03:15:58;;;;;;;;;;;;;;;16.91;71.42;101044.41;1020431;29;643;-67
2022/10/02 03:16:49;;;;;;;;;;;;;;;16.92;70.96;101050.63;1020133;29;667;-68
2022/10/02 03:17:39;;;;;;;;;;;;;;;16.94;71.43;101044.13;1020524;29;1956;-67
2022/10/02 03:18:29;;;;;;;;;;;;;;;16.93;71.26;101053.19;1020440;29;675;-68
2022/10/02 03:19:20;;;;;;;;;;;;;;;16.93;71.15;101047.81;1020364;29;655;-69
2022/10/02 03:20:10;;;;;;;;;;;;;;;16.93;71.74;101053.19;1020306;29;959;-68
2022/10/02 03:21:01;;;;;;;;;;;;;;;16.94;71.65;101051.34;1020434;29;816;-67
2022/10/02 03:21:51;;;;;;;;;;;;;;;16.93;71.65;101063.13;1020206;29;695;-68
2022/10/02 03:22:42;;;;;;;;;;;;;;;16.91;71.68;101060.56;1020022;29;731;-67
2022/10/02 03:23:32;;;;;;;;;;;;;;;16.92;71.45;101056.88;1020531;29;666;-67
2022/10/02 03:24:22;;;;;;;;;;;;;;;16.89;70.98;101061.66;1020439;29;671;-67
2022/10/02 03:25:13;;;;;;;;;;;;;;;16.91;70.77;101055.16;1020369;29;667;-68
2022/10/02 03:26:03;;;;;;;;;;;;;;;16.91;71.55;101060.56;1020217;29;703;-68
2022/10/02 03:26:54;;;;;;;;;;;;;;;16.91;71.48;101065.94;1020821;29;624;-68
2022/10/02 03:27:44;;;;;;;;;;;;;;;16.94;71.46;101062.97;1021119;29;617;-67
2022/10/02 03:28:35;;;;;;;;;;;;;;;16.92;71.03;101062.25;1021020;29;691;-67
2022/10/02 03:29:25;;;;;;;;;;;;;;;16.93;70.91;101060.41;1021069;29;681;-68
2022/10/02 03:30:19;;;;;;;;;;;;;;;16.94;71.25;101059.44;1020465;29;639;-68
2022/10/02 03:31:09;;;;;;;;;;;;;;;16.89;71.81;101062.53;1022080;29;702;-67
2022/10/02 03:32:00;;;;;;;;;;;;;;;16.89;71.37;101062.53;1021001;29;730;-67
2022/10/02 03:32:52;;;;;;;;;;;;;;;16.93;71.55;101069.34;1020967;29;643;-67
2022/10/02 03:33:42;;;;;;;;;;;;;;;16.93;71.29;101071.19;1021931;29;1437;-68
2022/10/02 03:34:33;;;;;;;;;;;;;;;16.94;70.74;101065.69;1021634;29;695;-68
2022/10/02 03:35:23;;;;;;;;;;;;;;;16.91;70.69;101070.47;1021507;29;691;-68
2022/10/02 03:36:16;;;;;;;;;;;;;;;16.90;71.06;101066.94;1021504;29;691;-67
2022/10/02 03:37:07;;;;;;;;;;;;;;;16.92;70.75;101061.41;985971;29;1038978;-67
2022/10/02 03:37:57;;;;;;;;;;;;;;;16.93;70.80;101069.34;1021826;29;667;-67
2022/10/02 03:38:48;;;;;;;;;;;;;;;16.91;71.38;101071.31;1021764;29;622;-67
2022/10/02 03:39:38;;;;;;;;;;;;;;;16.90;71.44;101066.94;1021809;29;650;-68
2022/10/02 03:40:29;;;;;;;;;;;;;;;16.89;71.36;101067.91;1021197;29;625;-67
2022/10/02 03:41:19;;;;;;;;;;;;;;;16.89;71.14;101067.06;1021796;29;654;-67
2022/10/02 03:42:09;;;;;;;;;;;;;;;16.85;71.33;101066.47;1021751;29;622;-67
2022/10/02 03:43:00;;;;;;;;;;;;;;;16.89;71.30;101072.44;1025045;29;618;-68
2022/10/02 03:43:50;;;;;;;;;;;;;;;16.91;71.68;101068.63;1025543;29;642;-68
2022/10/02 03:44:41;;;;;;;;;;;;;;;16.91;71.24;101070.47;1021369;29;1230;-68
2022/10/02 03:45:31;;;;;;;;;;;;;;;16.92;71.30;101072.19;1021805;29;721;-68
2022/10/02 03:46:21;;;;;;;;;;;;;;;16.89;71.02;101073.28;1021895;29;638;-67
2022/10/02 03:47:12;;;;;;;;;;;;;;;16.89;70.76;101067.91;1021887;29;627;-67
2022/10/02 03:48:02;;;;;;;;;;;;;;;16.89;70.70;101067.06;1021881;29;667;-69
2022/10/02 03:48:55;;;;;;;;;;;;;;;16.90;70.90;101068.75;1021923;29;674;-68
2022/10/02 03:49:45;;;;;;;;;;;;;;;16.90;70.71;101061.53;1021237;29;721;-68
2022/10/02 03:50:36;;;;;;;;;;;;;;;16.91;71.61;101065.09;1021132;29;689;-67
2022/10/02 03:51:26;;;;;;;;;;;;;;;16.90;71.37;101068.75;1021774;29;634;-68
2022/10/02 03:52:17;;;;;;;;;;;;;;;16.87;70.95;101069.88;1021906;29;651;-68
2022/10/02 03:53:07;;;;;;;;;;;;;;;16.88;71.41;101074.28;1021809;29;736;-68
2022/10/02 03:53:57;;;;;;;;;;;;;;;16.90;70.94;101063.38;1021856;29;607;-67
2022/10/02 03:54:48;;;;;;;;;;;;;;;16.89;71.58;101073.28;1021681;29;646;-68
2022/10/02 03:55:38;;;;;;;;;;;;;;;16.90;71.29;101068.75;1021723;29;652;-68
2022/10/02 03:56:29;;;;;;;;;;;;;;;16.91;70.81;101065.09;1021778;29;671;-67
2022/10/02 03:57:20;;;;;;;;;;;;;;;16.83;71.70;101068.47;1021585;29;1898;-68
2022/10/02 03:58:10;;;;;;;;;;;;;;;16.86;70.83;101068.19;1021294;29;854;-68
2022/10/02 03:59:00;;;;;;;;;;;;;;;16.86;71.62;101064.63;1020666;29;622;-67
2022/10/02 03:59:51;;;;;;;;;;;;;;;16.88;71.36;101066.19;1021744;29;626;-68
2022/10/02 04:00:41;;;;;;;;;;;;;;;16.90;71.03;101069.63;1021762;29;689;-68
2022/10/02 04:01:32;;;;;;;;;;;;;;;16.91;70.97;101068.63;1021678;29;627;-68
2022/10/02 04:02:22;;;;;;;;;;;;;;;16.89;70.91;101067.91;1021692;29;666;-68
2022/10/02 04:03:13;;;;;;;;;;;;;;;16.90;71.63;101075.00;1021160;29;670;-68
2022/10/02 04:04:03;;;;;;;;;;;;;;;16.88;71.36;101071.59;1021691;29;647;-68
2022/10/02 04:04:54;;;;;;;;;;;;;;;16.88;70.85;101076.97;1021157;29;635;-68
2022/10/02 04:05:44;;;;;;;;;;;;;;;16.90;71.61;101063.38;1020714;29;1511;-68
2022/10/02 04:06:35;;;;;;;;;;;;;;;16.87;71.04;101075.25;1020573;29;622;-68
2022/10/02 04:07:25;;;;;;;;;;;;;;;16.80;70.95;101079.50;1021133;29;661;-68
2022/10/02 04:08:15;;;;;;;;;;;;;;;16.81;71.48;101078.50;1021115;29;673;-68
2022/10/02 04:09:06;;;;;;;;;;;;;;;16.84;71.62;101080.09;1020655;29;630;-67
2022/10/02 04:09:56;;;;;;;;;;;;;;;16.82;71.59;101082.06;1021277;29;706;-68
2022/10/02 04:10:47;;;;;;;;;;;;;;;16.83;71.56;101081.94;1021137;29;682;-68
2022/10/02 04:11:37;;;;;;;;;;;;;;;16.84;71.89;101078.22;1020956;29;1206;-68
2022/10/02 04:12:28;;;;;;;;;;;;;;;16.86;71.46;101084.31;1021108;29;639;-68
2022/10/02 04:13:18;;;;;;;;;;;;;;;16.86;71.15;101078.94;1020623;29;634;-68
2022/10/02 04:14:09;;;;;;;;;;;;;;;16.86;70.90;101084.31;1021177;29;710;-68
2022/10/02 04:14:59;;;;;;;;;;;;;;;16.87;70.94;101086.03;1021072;29;619;-68
2022/10/02 04:15:50;;;;;;;;;;;;;;;16.85;71.48;101082.63;1020559;29;658;-68
2022/10/02 04:16:40;;;;;;;;;;;;;;;16.84;71.50;101080.09;1021050;29;697;-68
2022/10/02 04:17:31;;;;;;;;;;;;;;;16.86;71.53;101092.41;1020459;29;1894;-68
2022/10/02 04:18:21;;;;;;;;;;;;;;;16.88;71.28;101087.75;1021201;29;686;-68
2022/10/02 04:19:11;;;;;;;;;;;;;;;16.85;71.52;101088.00;1020492;29;678;-69
2022/10/02 04:20:02;;;;;;;;;;;;;;;16.84;71.54;101086.28;1021212;29;650;-68
2022/10/02 04:20:52;;;;;;;;;;;;;;;16.85;71.18;101084.44;1021083;29;639;-68
2022/10/02 04:21:43;;;;;;;;;;;;;;;16.85;71.63;101087.16;1020508;29;744;-68
2022/10/02 04:22:33;;;;;;;;;;;;;;;16.85;71.43;101093.38;1021640;29;682;-68
2022/10/02 04:23:24;;;;;;;;;;;;;;;16.81;71.37;101086.59;1020615;29;694;-68
2022/10/02 04:24:14;;;;;;;;;;;;;;;16.79;71.40;101093.94;1021178;29;682;-68
2022/10/02 04:25:05;;;;;;;;;;;;;;;16.79;72.04;101096.63;1020541;29;603;-67
2022/10/02 04:25:55;;;;;;;;;;;;;;;16.80;71.15;101097.47;1021107;29;624;-68